Ames, Oklahoma
Current Conditions -  °F | °C
As of 1:37 AM on Sunday 21 Dec 2014 (Local Time) from KEND Reporting Station
Broken Clouds Broken Clouds  
Wind Chill: 34°   Ceiling: 2400
Heat Index: 41°   Visibility: 10mi
Dew Point: 37°   Wind: 13mph
Humidity: 87%   Direction: 160°SSE
Pressure: 30.06"   Gusts: NA
Location:  36.25°N, 98.19°W
Report Text: KEND 210737Z AUTO 16011KT 10SM BKN024 05/03 A3006 RMK AO2 BKN V FEW
Loading
Personal Weather Stations






























Interactive Weather Map New forecast layout! Learn more

10-Day Weather Forecast

Advertisements
Track Severe Weather on mobile